Time;durP1;ratioP1;P1;durP2;ratioP2;P2;SDS_P1;SDS_P2;PMS_P1;PMS_P2;Temp;Humidity;BMP_temperature;BMP_pressure;BME280_temperature;BME280_humidity;BME280_pressure;Samples;Min_cycle;Max_cycle;Signal;HPM_P1;HPM_P2
2022/06/20 00:01:06;;;;;;;15.68;2.10;;;;;;;;;;5118420;27;20035;-73
2022/06/20 00:03:36;;;;;;;11.38;2.08;;;;;;;;;;5118397;27;20041;-73
2022/06/20 00:06:02;;;;;;;8.13;1.83;;;;;;;;;;5118404;27;20035;-73
2022/06/20 00:08:29;;;;;;;7.97;1.88;;;;;;;;;;5118066;27;20031;-73
2022/06/20 00:10:55;;;;;;;6.35;2.20;;;;;;;;;;5100983;27;20046;-73
2022/06/20 00:13:24;;;;;;;5.93;2.13;;;14.40;99.30;;;;;;5117879;27;20471;-73
2022/06/20 00:15:51;;;;;;;8.70;1.92;;;14.30;99.30;;;;;;5117714;27;20055;-73
2022/06/20 00:18:18;;;;;;;7.43;1.60;;;;;;;;;;5117820;27;20479;-74
2022/06/20 00:20:45;;;;;;;4.78;1.75;;;;;;;;;;5117842;27;20042;-74
2022/06/20 00:23:11;;;;;;;12.55;1.92;;;14.40;99.90;;;;;;5117769;27;20119;-74
2022/06/20 00:25:37;;;;;;;8.27;2.03;;;;;;;;;;5117856;27;20039;-74
2022/06/20 00:28:04;;;;;;;9.95;2.00;;;13.70;99.90;;;;;;5118034;27;20081;-74
2022/06/20 00:30:30;;;;;;;8.38;1.92;;;15.00;99.30;;;;;;5117929;27;20424;-74
2022/06/20 00:32:56;;;;;;;8.13;1.90;;;14.30;99.90;;;;;;5100635;27;20086;-74
2022/06/20 00:35:22;;;;;;;6.40;1.90;;;;;;;;;;5117927;27;20075;-74
2022/06/20 00:37:48;;;;;;;9.05;2.15;;;;;;;;;;5117512;27;20042;-74
2022/06/20 00:40:36;;;;;;;10.10;1.80;;;14.10;99.70;;;;;;5100309;27;20039;-74
2022/06/20 00:43:05;;;;;;;7.50;1.60;;;14.20;99.50;;;;;;5117308;27;20486;-74
2022/06/20 00:45:37;;;;;;;16.30;2.90;;;13.90;99.50;;;;;;5117374;27;20092;-74
2022/06/20 00:48:19;;;;;;;7.23;1.80;;;14.20;99.80;;;;;;5117303;27;20548;-74
2022/06/20 00:50:51;;;;;;;9.40;2.75;;;14.10;99.70;;;;;;5117489;27;20273;-74
2022/06/20 00:53:41;;;;;;;5.13;1.73;;;13.10;99.90;;;;;;5116877;27;20039;-74
2022/06/20 00:56:14;;;;;;;10.38;1.90;;;;;;;;;;5117013;27;20487;-74
2022/06/20 00:58:46;;;;;;;9.18;2.00;;;13.20;99.90;;;;;;5117198;27;20039;-74
2022/06/20 01:01:20;;;;;;;6.65;1.80;;;14.20;99.90;;;;;;5117023;27;20043;-74
2022/06/20 01:03:51;;;;;;;6.57;2.13;;;14.10;99.80;;;;;;5117267;27;20042;-74
2022/06/20 01:06:26;;;;;;;10.82;2.42;;;14.10;99.90;;;;;;5117245;27;20050;-73
2022/06/20 01:08:59;;;;;;;6.88;1.83;;;14.30;99.80;;;;;;5116986;27;20050;-72
2022/06/20 01:11:31;;;;;;;6.75;1.60;;;14.10;99.80;;;;;;5117119;27;20042;-73
2022/06/20 01:13:57;;;;;;;12.07;2.33;;;;;;;;;;5116762;27;20039;-73
2022/06/20 01:16:30;;;;;;;13.82;2.13;;;14.10;99.90;;;;;;5116427;27;20526;-73
2022/06/20 01:19:00;;;;;;;12.65;2.22;;;14.00;99.90;;;;;;5100002;27;20058;-73
2022/06/20 01:21:31;;;;;;;8.73;2.33;;;;;;;;;;5099638;27;20160;-73
2022/06/20 01:24:05;;;;;;;7.93;1.98;;;;;;;;;;5099681;27;20099;-73
2022/06/20 01:26:31;;;;;;;6.50;2.50;;;;;;;;;;5116555;27;20039;-73
2022/06/20 01:29:03;;;;;;;6.47;2.08;;;14.20;99.90;;;;;;5116804;27;20054;-73
2022/06/20 01:31:39;;;;;;;11.90;2.22;;;14.50;99.90;;;;;;5116901;27;20122;-73
2022/06/20 01:34:06;;;;;;;13.48;2.28;;;13.90;99.60;;;;;;5116665;27;20039;-73
2022/06/20 01:39:20;;;;;;;7.78;1.90;;;;;;;;;;5116419;27;20471;-73
2022/06/20 01:44:37;;;;;;;10.13;2.25;;;13.80;99.90;;;;;;5116344;27;20126;-72
2022/06/20 01:47:03;;;;;;;7.85;2.47;;;13.70;99.90;;;;;;5116514;27;20043;-72
2022/06/20 01:49:31;;;;;;;8.55;2.45;;;13.50;99.90;;;;;;5116180;27;20046;-72
2022/06/20 01:52:07;;;;;;;8.13;2.45;;;13.60;99.90;;;;;;5116123;27;20043;-73
2022/06/20 01:54:40;;;;;;;6.97;2.03;;;13.60;99.90;;;;;;5116215;27;20043;-73
2022/06/20 01:57:08;;;;;;;10.63;2.20;;;13.70;99.90;;;;;;5116143;27;20035;-73
2022/06/20 01:59:52;;;;;;;5.13;2.15;;;13.60;99.90;;;;;;5116252;27;20122;-73
2022/06/20 02:02:18;;;;;;;9.00;2.65;;;;;;;;;;5115916;28;20039;-72
2022/06/20 02:04:45;;;;;;;13.15;2.70;;;;;;;;;;5115478;27;20479;-73
2022/06/20 02:07:12;;;;;;;7.25;2.25;;;13.60;99.90;;;;;;5099464;27;20070;-70
2022/06/20 02:09:40;;;;;;;14.57;2.95;;;12.30;99.90;;;;;;5116033;28;20043;-70
2022/06/20 02:12:08;;;;;;;10.20;2.72;;;13.40;99.90;;;;;;5116205;27;20104;-70
2022/06/20 02:14:42;;;;;;;9.90;2.05;;;13.60;99.90;;;;;;5115877;28;20047;-70
2022/06/20 02:17:28;;;;;;;10.88;2.33;;;13.50;99.90;;;;;;5115722;28;20122;-70
2022/06/20 02:19:56;;;;;;;5.18;1.90;;;13.40;99.90;;;;;;5115979;28;20035;-70
2022/06/20 02:22:25;;;;;;;9.40;2.72;;;13.60;99.90;;;;;;5134262;28;20486;-70
2022/06/20 02:25:05;;;;;;;8.63;3.03;;;13.40;99.90;;;;;;5115983;28;20031;-70
2022/06/20 02:27:37;;;;;;;10.80;3.15;;;14.00;99.90;;;;;;5115943;28;20039;-70
2022/06/20 02:30:04;;;;;;;9.07;2.40;;;;;;;;;;5116152;28;20134;-70
2022/06/20 02:32:36;;;;;;;8.90;2.92;;;13.70;99.90;;;;;;5115765;28;20071;-70
2022/06/20 02:35:04;;;;;;;8.87;2.93;;;13.50;99.90;;;;;;5116111;28;20069;-70
2022/06/20 02:37:30;;;;;;;7.80;2.88;;;13.90;99.90;;;;;;5115675;28;20035;-70
2022/06/20 02:40:02;;;;;;;11.23;2.40;;;13.50;99.90;;;;;;5115716;28;20035;-71
2022/06/20 02:42:35;;;;;;;12.57;3.03;;;12.60;99.90;;;;;;5115786;28;20037;-72
2022/06/20 02:45:04;;;;;;;12.38;3.05;;;;;;;;;;5115532;28;20122;-73
2022/06/20 02:47:31;;;;;;;13.05;2.58;;;13.40;99.90;;;;;;5115535;28;20043;-73
2022/06/20 02:49:59;;;;;;;17.02;4.13;;;13.50;99.90;;;;;;5115821;28;20539;-73
2022/06/20 02:52:36;;;;;;;12.93;3.45;;;13.40;99.90;;;;;;5098587;28;20043;-73
2022/06/20 02:55:03;;;;;;;8.68;2.92;;;;;;;;;;5115742;28;20095;-72
2022/06/20 02:57:41;;;;;;;11.07;2.97;;;13.60;99.90;;;;;;5115534;28;20147;-72
2022/06/20 03:00:14;;;;;;;10.88;3.00;;;13.50;99.90;;;;;;5115443;28;20039;-72
2022/06/20 03:02:44;;;;;;;14.23;3.50;;;13.40;99.90;;;;;;5115734;28;20039;-72
2022/06/20 03:05:11;;;;;;;18.20;3.47;;;;;;;;;;5115452;28;20035;-73
2022/06/20 03:07:37;;;;;;;11.75;3.28;;;12.80;99.90;;;;;;5115629;28;20518;-73
2022/06/20 03:10:22;;;;;;;11.57;3.05;;;13.20;99.90;;;;;;5115539;28;20046;-73
2022/06/20 03:12:48;;;;;;;16.52;3.67;;;;;;;;;;5115338;28;20182;-73
2022/06/20 03:15:15;;;;;;;11.32;3.20;;;13.20;99.90;;;;;;5116074;27;20138;-73
2022/06/20 03:17:42;;;;;;;14.60;3.55;;;14.40;99.90;;;;;;5118879;27;20066;-73
2022/06/20 03:20:13;;;;;;;10.10;3.33;;;12.00;99.90;;;;;;5119436;27;20061;-73
2022/06/20 03:22:47;;;;;;;7.25;2.80;;;13.40;99.90;;;;;;5119171;27;20113;-73
2022/06/20 03:25:14;;;;;;;10.95;3.28;;;13.30;99.90;;;;;;5118956;27;20071;-73
2022/06/20 03:27:41;;;;;;;14.60;3.28;;;13.00;99.90;;;;;;5102182;27;20082;-73
2022/06/20 03:30:30;;;;;;;16.58;3.80;;;13.20;99.90;;;;;;5119165;27;20051;-73
2022/06/20 03:32:59;;;;;;;13.98;3.63;;;13.20;99.90;;;;;;5118737;27;20043;-73
2022/06/20 03:35:30;;;;;;;9.85;3.00;;;;;;;;;;5118559;27;20050;-73
2022/06/20 03:38:00;;;;;;;13.18;3.53;;;13.20;99.90;;;;;;5118522;27;20047;-73
2022/06/20 03:40:26;;;;;;;7.15;2.90;;;;;;;;;;5118772;27;20031;-73
2022/06/20 03:42:52;;;;;;;11.32;3.20;;;;;;;;;;5118722;27;20126;-74
2022/06/20 03:45:20;;;;;;;14.00;3.38;;;13.20;99.90;;;;;;5101498;27;20493;-73
2022/06/20 03:47:57;;;;;;;10.10;3.33;;;12.90;99.90;;;;;;5101523;27;20122;-73
2022/06/20 03:50:32;;;;;;;12.43;3.90;;;12.80;99.90;;;;;;5118510;27;20403;-73
2022/06/20 03:53:17;;;;;;;12.88;3.35;;;12.10;99.90;;;;;;5118466;27;20092;-73
2022/06/20 03:55:46;;;;;;;14.55;3.75;;;;;;;;;;5118277;27;20047;-73
2022/06/20 03:58:33;;;;;;;11.10;3.65;;;13.10;99.90;;;;;;5118110;27;20074;-73
2022/06/20 04:00:59;;;;;;;14.88;4.57;;;;;;;;;;5101089;27;20043;-73
2022/06/20 04:03:45;;;;;;;10.45;3.30;;;13.20;99.90;;;;;;5118577;27;20130;-73
2022/06/20 04:06:30;;;;;;;14.57;3.47;;;12.90;99.90;;;;;;5101099;27;20039;-73
2022/06/20 04:12:21;;;;;;;14.07;3.72;;;13.10;99.90;;;;;;5118262;27;20039;-73
2022/06/20 04:14:59;;;;;;;15.55;3.70;;;13.00;99.90;;;;;;5097000;28;20391;-74
2022/06/20 04:20:23;;;;;;;9.75;3.95;;;;;;;;;;5114395;28;20048;-73
2022/06/20 04:22:52;;;;;;;12.25;5.10;;;13.20;99.90;;;;;;5097205;28;20039;-72
2022/06/20 04:25:38;;;;;;;13.90;4.00;;;13.10;99.90;;;;;;5115725;28;20035;-72
2022/06/20 04:28:25;;;;;;;10.48;4.20;;;;;;;;;;5113664;28;20048;-73
2022/06/20 04:30:57;;;;;;;12.82;4.05;;;13.10;99.90;;;;;;5114213;28;20044;-73
2022/06/20 04:33:26;;;;;;;;;;;13.20;99.90;;;;;;5115040;28;20039;-73
2022/06/20 04:36:05;;;;;;;7.63;3.53;;;;;;;;;;5114265;28;19922;-73
2022/06/20 04:38:43;;;;;;;13.00;4.40;;;13.10;99.90;;;;;;5114153;28;20069;-74
2022/06/20 04:41:17;;;;;;;17.13;4.20;;;13.30;99.90;;;;;;5114133;28;20047;-73
2022/06/20 04:43:55;;;;;;;14.52;4.47;;;13.20;99.90;;;;;;5114037;28;20043;-73
2022/06/20 04:46:21;;;;;;;19.92;4.40;;;;;;;;;;5114016;28;20054;-73
2022/06/20 04:48:48;;;;;;;19.10;4.88;;;;;;;;;;5114030;28;20126;-73
2022/06/20 04:51:17;;;;;;;16.58;4.63;;;;;;;;;;5113882;28;20039;-73
2022/06/20 04:53:45;;;;;;;13.15;4.30;;;13.30;99.90;;;;;;5113776;28;20047;-73
2022/06/20 04:56:14;;;;;;;18.92;4.30;;;13.40;99.90;;;;;;5113690;28;20043;-73
2022/06/20 04:58:48;;;;;;;15.95;4.53;;;13.50;99.90;;;;;;5113999;28;20045;-73
2022/06/20 05:01:16;;;;;;;14.13;4.68;;;13.40;99.90;;;;;;5096683;28;20097;-73
2022/06/20 05:03:55;;;;;;;13.57;5.55;;;;;;;;;;5113700;28;20078;-73
2022/06/20 05:06:26;;;;;;;18.13;5.03;;;13.60;99.90;;;;;;5113540;28;20044;-73
2022/06/20 05:09:08;;;;;;;19.42;4.47;;;13.80;99.90;;;;;;5113426;28;20047;-73
2022/06/20 05:11:42;;;;;;;14.75;3.85;;;13.50;99.90;;;;;;5113606;28;20032;-73
2022/06/20 05:14:17;;;;;;;17.45;3.90;;;13.50;99.90;;;;;;5113568;28;20035;-73
2022/06/20 05:16:48;;;;;;;15.95;4.68;;;13.70;99.90;;;;;;5113244;28;20480;-73
2022/06/20 05:19:31;;;;;;;18.87;4.70;;;13.70;99.90;;;;;;5113702;28;20079;-73
2022/06/20 05:22:01;;;;;;;14.05;3.85;;;14.70;99.90;;;;;;5113398;28;20082;-73
2022/06/20 05:24:37;;;;;;;17.65;3.50;;;13.80;99.90;;;;;;5113447;28;20081;-73
2022/06/20 05:27:24;;;;;;;12.65;4.40;;;;;;;;;;5113319;28;20046;-73
2022/06/20 05:29:52;;;;;;;13.95;3.78;;;14.20;99.90;;;;;;5096237;28;20070;-73
2022/06/20 05:32:45;;;;;;;17.33;3.58;;;14.10;99.90;;;;;;5113350;28;20047;-73
2022/06/20 05:35:47;;;;;;;11.88;3.92;;;14.20;99.90;;;;;;5113128;28;20051;-73
2022/06/20 05:38:13;;;;;;;14.93;4.15;;;;;;;;;;5112697;28;20403;-73
2022/06/20 05:40:50;;;;;;;11.43;3.45;;;14.30;99.90;;;;;;5112545;28;20040;-73
2022/06/20 05:43:22;;;;;;;24.98;4.15;;;;;;;;;;5113058;28;20036;-73
2022/06/20 05:45:54;;;;;;;18.48;3.97;;;15.30;99.90;;;;;;5113092;28;20042;-74
2022/06/20 05:48:25;;;;;;;22.95;3.97;;;14.40;99.90;;;;;;5113000;28;20039;-73
2022/06/20 05:50:59;;;;;;;14.80;3.78;;;14.30;99.90;;;;;;5113039;28;20490;-73
2022/06/20 05:53:57;;;;;;;16.17;4.70;;;14.50;99.90;;;;;;5112803;28;20123;-73
2022/06/20 05:56:37;;;;;;;20.33;5.07;;;14.40;99.90;;;;;;5112715;28;20499;-73
2022/06/20 05:59:05;;;;;;;14.93;3.70;;;14.40;99.90;;;;;;5112612;28;20150;-74
2022/06/20 06:01:33;;;;;;;14.27;3.63;;;;;;;;;;5112582;28;20036;-73
2022/06/20 06:04:07;;;;;;;21.02;4.40;;;14.80;99.90;;;;;;5112694;28;20043;-73
2022/06/20 06:06:56;;;;;;;21.70;4.18;;;14.70;99.90;;;;;;5112587;28;20046;-74
2022/06/20 06:09:30;;;;;;;13.10;3.83;;;14.80;99.80;;;;;;5112712;28;20526;-74
2022/06/20 06:12:00;;;;;;;15.73;3.72;;;14.90;99.80;;;;;;5112591;28;20119;-73
2022/06/20 06:14:53;;;;;;;17.45;4.18;;;14.80;99.90;;;;;;5113840;27;20046;-73
2022/06/20 06:17:39;;;;;;;23.17;4.68;;;14.60;98.90;;;;;;5115728;27;20047;-73
2022/06/20 06:20:11;;;;;;;18.42;4.05;;;;;;;;;;5116164;28;20417;-74
2022/06/20 06:22:43;;;;;;;14.40;3.50;;;14.90;99.80;;;;;;5115864;28;20475;-73
2022/06/20 06:25:21;;;;;;;25.75;3.90;;;15.10;99.10;;;;;;5116233;28;20446;-73
2022/06/20 06:27:50;;;;;;;14.02;3.72;;;14.80;99.40;;;;;;5115776;28;20085;-73
2022/06/20 06:30:35;;;;;;;15.48;4.20;;;;;;;;;;5115638;28;20097;-73
2022/06/20 06:33:10;;;;;;;10.45;3.60;;;15.30;98.10;;;;;;5115643;28;20042;-73
2022/06/20 06:35:45;;;;;;;10.95;2.80;;;15.40;99.00;;;;;;5098672;28;20047;-73
2022/06/20 06:38:32;;;;;;;12.40;3.28;;;15.10;98.40;;;;;;5115819;28;20487;-73
2022/06/20 06:41:00;;;;;;;12.70;3.33;;;14.60;99.90;;;;;;5098607;28;20038;-73
2022/06/20 06:43:28;;;;;;;7.60;3.55;;;;;;;;;;5098618;28;20049;-73
2022/06/20 06:45:59;;;;;;;15.18;2.90;;;15.20;98.00;;;;;;5116986;28;20492;-72
2022/06/20 06:48:45;;;;;;;8.98;2.67;;;;;;;;;;5116769;28;20124;-73
2022/06/20 06:51:33;;;;;;;13.10;2.90;;;15.20;98.40;;;;;;5117773;27;20047;-73
2022/06/20 06:54:17;;;;;;;14.05;2.80;;;15.10;98.30;;;;;;5119732;27;20453;-73
2022/06/20 06:57:08;;;;;;;14.95;2.70;;;15.10;98.00;;;;;;5119830;27;20043;-73
2022/06/20 06:59:38;;;;;;;9.18;2.65;;;;;;;;;;5119491;27;20039;-73
2022/06/20 07:02:05;;;;;;;7.93;2.38;;;;;;;;;;5102679;27;20395;-73
2022/06/20 07:04:40;;;;;;;11.50;2.45;;;;;;;;;;5119577;27;20067;-73
2022/06/20 07:07:18;;;;;;;15.23;2.80;;;15.30;97.10;;;;;;5119480;27;20039;-73
2022/06/20 07:09:46;;;;;;;10.30;2.50;;;;;;;;;;5102285;27;20035;-73
2022/06/20 07:12:22;;;;;;;17.80;2.58;;;15.50;98.20;;;;;;5119173;27;20042;-73
2022/06/20 07:15:21;;;;;;;12.02;2.45;;;15.40;97.90;;;;;;5118895;27;20062;-74
2022/06/20 07:17:56;;;;;;;12.38;2.80;;;15.60;97.00;;;;;;5101804;27;20373;-73
2022/06/20 07:20:24;;;;;;;11.40;3.38;;;;;;;;;;5118874;27;20045;-74
2022/06/20 07:22:50;;;;;;;11.43;2.47;;;;;;;;;;5118812;27;20099;-73
2022/06/20 07:25:16;;;;;;;12.60;2.60;;;;;;;;;;5118939;27;20475;-73
2022/06/20 07:27:58;;;;;;;12.10;2.55;;;15.40;97.10;;;;;;5118972;27;20487;-70
2022/06/20 07:30:30;;;;;;;8.07;2.22;;;15.30;96.90;;;;;;5102094;27;20039;-70
2022/06/20 07:33:09;;;;;;;11.10;2.63;;;15.60;97.20;;;;;;5118932;27;20043;-70
2022/06/20 07:35:49;;;;;;;8.68;2.67;;;15.50;97.10;;;;;;5102147;27;20183;-70
2022/06/20 07:38:23;;;;;;;6.22;2.60;;;15.40;97.10;;;;;;5118780;27;20047;-70
2022/06/20 07:40:55;;;;;;;8.02;2.60;;;15.50;96.90;;;;;;5118788;27;20044;-70
2022/06/20 07:43:29;;;;;;;10.90;2.43;;;15.90;96.80;;;;;;5118805;27;20050;-70
2022/06/20 07:45:56;;;;;;;7.78;2.58;;;15.60;96.50;;;;;;5118878;27;20046;-70
2022/06/20 07:48:36;;;;;;;12.05;2.55;;;15.90;95.50;;;;;;5118692;27;20483;-70
2022/06/20 07:51:22;;;;;;;9.40;2.20;;;15.90;96.50;;;;;;5118526;27;20039;-70
2022/06/20 07:53:57;;;;;;;7.45;2.50;;;16.60;99.80;;;;;;5118734;27;20050;-70
2022/06/20 07:56:50;;;;;;;14.23;4.15;;;16.70;99.80;;;;;;5118452;27;20084;-69
2022/06/20 07:59:45;;;;;;;15.02;3.10;;;15.80;96.40;;;;;;5101307;27;20074;-72
2022/06/20 08:02:18;;;;;;;9.40;3.00;;;15.80;96.60;;;;;;5114435;27;20475;-70
2022/06/20 08:04:45;;;;;;;13.48;3.42;;;16.10;96.80;;;;;;5118304;27;20122;-70
2022/06/20 08:07:44;;;;;;;12.48;2.90;;;15.80;96.90;;;;;;5101252;27;20538;-70
2022/06/20 08:10:10;;;;;;;13.40;2.92;;;;;;;;;;5113331;27;20066;-70
2022/06/20 08:12:57;;;;;;;13.05;2.58;;;15.80;96.40;;;;;;5118067;27;20083;-70
2022/06/20 08:15:24;;;;;;;12.40;2.88;;;;;;;;;;5117968;27;20055;-71
2022/06/20 08:17:51;;;;;;;10.63;2.83;;;16.80;99.80;;;;;;5117994;27;20035;-71
2022/06/20 08:20:18;;;;;;;8.13;3.38;;;16.00;96.20;;;;;;5118188;27;20491;-71
2022/06/20 08:22:56;;;;;;;9.48;2.63;;;16.20;96.50;;;;;;5117836;27;20113;-71
2022/06/20 08:25:26;;;;;;;11.82;2.83;;;16.20;96.30;;;;;;5117686;27;20118;-71
2022/06/20 08:28:00;;;;;;;11.40;3.15;;;16.20;95.90;;;;;;5117701;27;20039;-71
2022/06/20 08:30:30;;;;;;;14.60;3.20;;;16.30;95.90;;;;;;5117845;27;20043;-73
2022/06/20 08:33:08;;;;;;;15.30;3.13;;;16.00;96.00;;;;;;5117821;27;20506;-73
2022/06/20 08:35:41;;;;;;;13.73;2.95;;;16.00;96.30;;;;;;5117868;27;20043;-73
2022/06/20 08:38:16;;;;;;;9.20;2.88;;;17.00;99.80;;;;;;5117570;27;20173;-74
2022/06/20 08:40:47;;;;;;;10.27;2.85;;;16.10;99.60;;;;;;5117791;27;20039;-73
2022/06/20 08:43:22;;;;;;;13.45;2.70;;;15.20;98.30;;;;;;5117641;27;20479;-74
2022/06/20 08:46:04;;;;;;;6.55;2.60;;;;;;;;;;5100510;27;20126;-74
2022/06/20 08:48:57;;;;;;;8.45;2.70;;;16.20;95.70;;;;;;5117535;27;20518;-73
2022/06/20 08:51:42;;;;;;;10.40;2.63;;;;;;;;;;5100276;27;20045;-74
2022/06/20 08:54:54;;;;;;;9.77;2.88;;;16.30;96.40;;;;;;5117331;27;20480;-73
2022/06/20 08:57:33;;;;;;;13.93;3.33;;;17.10;98.70;;;;;;5117207;27;20088;-74
2022/06/20 09:00:26;;;;;;;12.85;3.38;;;16.10;99.20;;;;;;5117381;27;20050;-74
2022/06/20 09:03:28;;;;;;;7.28;2.47;;;16.10;95.70;;;;;;5116652;27;20417;-74
2022/06/20 09:06:25;;;;;;;9.57;2.40;;;16.20;95.60;;;;;;5100471;27;20591;-73
2022/06/20 09:09:02;;;;;;;8.45;2.38;;;16.60;98.80;;;;;;5116990;27;20065;-73
2022/06/20 09:11:31;;;;;;;11.02;2.80;;;;;;;;;;5116892;27;20042;-73
2022/06/20 09:14:25;;;;;;;7.30;2.17;;;16.60;95.20;;;;;;5099765;27;20046;-73
2022/06/20 09:16:53;;;;;;;8.45;2.60;;;16.40;98.10;;;;;;5116655;27;20508;-73
2022/06/20 09:19:20;;;;;;;10.10;2.72;;;;;;;;;;5116798;27;20050;-73
2022/06/20 09:22:03;;;;;;;9.05;2.35;;;17.20;93.80;;;;;;5100419;27;20164;-73
2022/06/20 09:24:53;;;;;;;9.27;2.50;;;16.70;95.30;;;;;;5099946;27;20035;-74
2022/06/20 09:27:34;;;;;;;11.70;2.75;;;17.40;94.00;;;;;;5116648;27;20050;-74
2022/06/20 09:30:00;;;;;;;14.48;2.83;;;16.80;97.20;;;;;;5116639;27;20074;-73
2022/06/20 09:32:43;;;;;;;9.32;2.85;;;17.50;95.90;;;;;;5134964;27;20073;-73
2022/06/20 09:35:47;;;;;;;14.27;3.58;;;17.30;93.00;;;;;;5099439;27;20099;-73
2022/06/20 09:38:50;;;;;;;13.50;3.30;;;17.10;97.60;;;;;;5116564;27;20035;-73
2022/06/20 09:41:36;;;;;;;17.52;3.38;;;;;;;;;;5099420;27;20031;-73
2022/06/20 09:44:10;;;;;;;11.50;2.60;;;17.90;97.90;;;;;;5116275;27;20039;-73
2022/06/20 09:47:05;;;;;;;13.48;3.20;;;17.60;98.10;;;;;;5116365;27;20046;-73
2022/06/20 09:49:41;;;;;;;10.20;2.70;;;16.50;98.10;;;;;;5116306;27;20087;-73
2022/06/20 09:52:39;;;;;;;11.90;3.25;;;17.70;98.30;;;;;;5099280;27;20046;-73
2022/06/20 09:55:28;;;;;;;8.90;2.50;;;17.00;96.90;;;;;;5116130;27;20490;-74
2022/06/20 09:58:20;;;;;;;12.05;2.85;;;16.90;93.80;;;;;;5116352;27;20368;-73
2022/06/20 10:01:00;;;;;;;11.27;2.90;;;17.30;97.50;;;;;;5098473;27;20107;-73
2022/06/20 10:03:34;;;;;;;10.02;2.40;;;;;;;;;;5116175;27;20035;-73
2022/06/20 10:06:25;;;;;;;10.20;2.80;;;17.90;97.20;;;;;;5116349;27;20042;-73
2022/06/20 10:09:02;;;;;;;14.32;3.00;;;17.80;96.90;;;;;;5116177;27;20429;-73
2022/06/20 10:12:14;;;;;;;8.23;2.55;;;17.50;93.00;;;;;;5099058;27;20079;-74
2022/06/20 10:15:01;;;;;;;8.07;2.50;;;17.60;96.40;;;;;;5115997;27;20055;-73
2022/06/20 10:17:56;;;;;;;14.75;3.00;;;17.80;93.40;;;;;;5115981;28;20376;-73
2022/06/20 10:20:47;;;;;;;10.73;3.10;;;18.10;94.60;;;;;;5115914;28;20039;-74
2022/06/20 10:24:07;;;;;;;11.48;2.95;;;17.60;93.40;;;;;;5115958;28;20043;-74
2022/06/20 10:26:49;;;;;;;17.83;3.78;;;17.40;93.40;;;;;;5020572;28;20037;-74
2022/06/20 10:29:15;;;;;;;16.33;3.40;;;;;;;;;;5004766;28;20057;-73
2022/06/20 10:31:55;;;;;;;16.10;2.97;;;18.10;96.10;;;;;;5079452;27;20039;-74
2022/06/20 10:34:44;;;;;;;12.35;2.65;;;18.10;95.80;;;;;;5122437;27;20117;-73
2022/06/20 10:37:33;;;;;;;13.40;3.00;;;18.30;95.60;;;;;;5122498;27;20090;-74
2022/06/20 10:40:24;;;;;;;9.80;2.78;;;18.10;96.10;;;;;;5122790;27;20107;-73
2022/06/20 10:43:28;;;;;;;7.78;2.90;;;18.60;96.20;;;;;;5122767;27;20167;-73
2022/06/20 10:46:11;;;;;;;5.25;2.10;;;17.90;90.90;;;;;;5122819;27;20043;-71
2022/06/20 10:48:44;;;;;;;8.75;2.40;;;;;;;;;;5122415;27;20502;-71
2022/06/20 10:51:26;;;;;;;7.93;2.85;;;18.60;94.90;;;;;;5105501;27;20050;-71
2022/06/20 10:54:34;;;;;;;10.60;2.60;;;18.00;94.60;;;;;;5122446;27;20413;-71
2022/06/20 10:57:15;;;;;;;7.13;2.20;;;18.20;90.20;;;;;;5122801;27;20101;-71
2022/06/20 10:59:59;;;;;;;10.65;2.58;;;18.10;95.00;;;;;;5122640;27;20043;-72
2022/06/20 11:02:30;;;;;;;8.77;2.40;;;18.60;95.50;;;;;;5122369;27;20035;-71
2022/06/20 11:05:14;;;;;;;6.93;2.35;;;18.00;95.80;;;;;;5122239;27;20046;-71
2022/06/20 11:07:43;;;;;;;8.07;2.60;;;18.40;96.30;;;;;;5122233;27;20099;-71
2022/06/20 11:10:50;;;;;;;10.07;2.90;;;17.80;96.40;;;;;;5105294;27;20540;-71
2022/06/20 11:13:26;;;;;;;15.82;3.03;;;18.40;96.70;;;;;;5122260;27;20078;-71
2022/06/20 11:16:07;;;;;;;10.45;2.67;;;16.40;96.50;;;;;;5122205;27;20059;-72
2022/06/20 11:19:20;;;;;;;9.15;2.65;;;17.30;93.80;;;;;;5122211;27;20051;-71
2022/06/20 11:22:13;;;;;;;6.88;2.80;;;17.10;94.10;;;;;;5020751;28;20117;-71
2022/06/20 11:24:54;;;;;;;9.75;2.47;;;18.20;97.50;;;;;;5122226;27;20224;-71
2022/06/20 11:27:23;;;;;;;9.10;2.85;;;17.10;94.10;;;;;;5105138;27;20050;-71
2022/06/20 11:29:49;;;;;;;6.97;2.60;;;;;;;;;;5122455;27;20035;-71
2022/06/20 11:32:20;;;;;;;6.68;2.70;;;17.20;96.30;;;;;;5122481;27;20097;-71
2022/06/20 11:34:54;;;;;;;8.52;2.58;;;17.80;93.10;;;;;;5122405;27;20039;-71
2022/06/20 11:37:33;;;;;;;6.20;2.60;;;17.60;92.90;;;;;;5119956;27;20085;-71
2022/06/20 11:40:22;;;;;;;8.65;2.72;;;17.50;96.30;;;;;;5137356;27;20415;-71
2022/06/20 11:43:30;;;;;;;12.52;3.45;;;18.10;91.50;;;;;;5118817;27;20046;-71
2022/06/20 11:46:22;;;;;;;16.55;2.40;;;18.40;96.50;;;;;;5071771;27;20047;-71
2022/06/20 11:49:12;;;;;;;7.50;2.35;;;17.30;95.80;;;;;;5101977;27;20039;-71
2022/06/20 11:51:54;;;;;;;12.95;2.40;;;17.80;96.00;;;;;;5118926;27;20101;-71
2022/06/20 11:54:32;;;;;;;10.27;2.92;;;18.10;95.70;;;;;;5118699;27;20035;-71
2022/06/20 11:57:07;;;;;;;10.77;2.30;;;18.00;92.10;;;;;;5118745;27;20129;-71
2022/06/20 11:59:41;;;;;;;8.52;2.65;;;17.70;95.20;;;;;;5118488;27;20061;-71
2022/06/20 12:02:32;;;;;;;7.28;2.40;;;17.70;92.90;;;;;;5118358;27;20121;-71
2022/06/20 12:04:58;;;;;;;8.98;2.70;;;;;;;;;;5118319;27;20041;-71
2022/06/20 12:07:37;;;;;;;10.55;2.42;;;19.30;94.20;;;;;;5118309;27;20050;-72
2022/06/20 12:10:29;;;;;;;5.63;2.40;;;18.40;94.20;;;;;;5118090;27;20050;-72
2022/06/20 12:13:06;;;;;;;9.40;2.47;;;18.90;95.20;;;;;;5118538;27;20043;-71
2022/06/20 12:16:03;;;;;;;5.47;2.45;;;18.10;91.60;;;;;;5117850;27;20293;-71
2022/06/20 12:18:39;;;;;;;7.13;2.25;;;;;;;;;;5079556;27;20134;-70
2022/06/20 12:24:08;;;;;;;9.90;2.60;;;18.60;94.30;;;;;;5073010;27;20054;-71
2022/06/20 12:26:41;;;;;;;14.73;2.80;;;18.90;91.40;;;;;;5101284;27;20398;-71
2022/06/20 12:29:17;;;;;;;10.93;2.70;;;19.60;92.70;;;;;;5117805;27;20054;-71
2022/06/20 12:31:48;;;;;;;11.68;2.83;;;18.60;90.40;;;;;;5117950;27;20552;-71
2022/06/20 12:34:16;;;;;;;9.63;2.63;;;18.50;88.90;;;;;;5136251;27;20364;-71
2022/06/20 12:36:42;;;;;;;15.73;2.95;;;;;;;;;;5117609;27;20040;-70
2022/06/20 12:39:31;;;;;;;10.23;2.58;;;18.20;94.70;;;;;;5100673;27;20047;-71
2022/06/20 12:42:17;;;;;;;9.02;2.65;;;18.00;95.10;;;;;;5117079;27;20082;-71
2022/06/20 12:45:13;;;;;;;11.68;2.38;;;18.30;91.60;;;;;;5117359;27;20514;-71
2022/06/20 12:47:45;;;;;;;8.80;2.70;;;19.20;93.80;;;;;;5117182;27;20045;-71
2022/06/20 12:50:18;;;;;;;8.82;2.80;;;17.90;92.80;;;;;;5117299;27;20513;-71
2022/06/20 12:53:02;;;;;;;12.48;2.80;;;18.20;93.90;;;;;;5100319;27;20039;-72
2022/06/20 12:55:31;;;;;;;8.52;2.75;;;18.50;93.90;;;;;;5100227;27;20119;-71
2022/06/20 12:58:17;;;;;;;9.93;2.40;;;19.40;94.10;;;;;;5117315;27;20063;-71
2022/06/20 13:00:54;;;;;;;8.25;2.42;;;19.30;94.50;;;;;;5117206;27;20490;-71
2022/06/20 13:03:39;;;;;;;9.77;2.60;;;18.40;94.10;;;;;;5117136;27;20050;-71
2022/06/20 13:06:26;;;;;;;8.98;2.85;;;19.40;94.30;;;;;;5100219;27;20039;-70
2022/06/20 13:09:33;;;;;;;4.78;2.40;;;18.40;88.90;;;;;;5117068;27;20031;-71
2022/06/20 13:12:20;;;;;;;8.07;2.53;;;19.00;94.60;;;;;;5117044;27;20039;-71
2022/06/20 13:14:46;;;;;;;8.18;2.78;;;;;;;;;;5117042;27;20134;-71
2022/06/20 13:17:18;;;;;;;8.60;2.55;;;17.90;94.10;;;;;;5116708;27;20047;-70
2022/06/20 13:19:59;;;;;;;6.47;2.40;;;17.70;93.30;;;;;;5100061;27;20037;-70
2022/06/20 13:22:35;;;;;;;7.43;2.20;;;19.40;93.60;;;;;;5116786;27;20035;-71
2022/06/20 13:25:10;;;;;;;6.50;2.30;;;18.70;87.30;;;;;;5116656;27;20039;-71
2022/06/20 13:27:36;;;;;;;5.93;2.55;;;;;;;;;;5116940;27;20031;-71
2022/06/20 13:30:14;;;;;;;10.30;2.47;;;19.60;93.50;;;;;;5116791;27;20042;-71
2022/06/20 13:32:51;;;;;;;6.35;2.47;;;18.80;89.50;;;;;;5100036;27;20070;-71
2022/06/20 13:35:45;;;;;;;7.63;2.28;;;18.30;93.70;;;;;;5116729;27;20039;-71
2022/06/20 13:38:11;;;;;;;18.58;3.10;;;;;;;;;;5116615;27;20123;-71
2022/06/20 13:40:55;;;;;;;12.15;2.80;;;19.50;94.30;;;;;;5116482;27;20042;-71
2022/06/20 13:43:51;;;;;;;13.60;2.70;;;18.70;94.40;;;;;;5116390;27;20049;-71
2022/06/20 13:46:29;;;;;;;8.85;2.80;;;18.50;95.00;;;;;;5116374;27;20043;-71
2022/06/20 13:48:55;;;;;;;7.93;2.80;;;;;;;;;;5116416;27;20368;-70
2022/06/20 13:51:48;;;;;;;9.07;2.42;;;19.20;95.40;;;;;;5116600;27;20387;-71
2022/06/20 13:54:18;;;;;;;12.48;2.47;;;18.20;94.70;;;;;;5116307;27;20043;-71
2022/06/20 13:56:59;;;;;;;8.38;2.10;;;17.40;93.50;;;;;;5116366;27;20402;-71
2022/06/20 13:59:52;;;;;;;8.30;2.20;;;19.40;93.70;;;;;;5115768;28;20088;-70
2022/06/20 14:02:42;;;;;;;12.38;2.50;;;17.80;93.70;;;;;;5116478;27;20047;-71
2022/06/20 14:05:24;;;;;;;9.38;2.75;;;18.30;89.00;;;;;;5099294;27;20092;-70
2022/06/20 14:08:01;;;;;;;7.43;2.65;;;17.80;93.60;;;;;;5134423;27;20035;-71
2022/06/20 14:10:31;;;;;;;5.50;2.22;;;19.30;93.80;;;;;;5115953;27;20104;-71